sensor_id;sensor_type;location;lat;lon;timestamp;P1;durP1;ratioP1;P2;durP2;ratioP2
55053;SDS011;40954;45.668;18.980;2022-09-09T00:06:31;6.57;;;3.85;;
55053;SDS011;40954;45.668;18.980;2022-09-09T00:09:08;4.93;;;3.80;;
55053;SDS011;40954;45.668;18.980;2022-09-09T00:11:43;5.93;;;4.03;;
55053;SDS011;40954;45.668;18.980;2022-09-09T00:14:56;5.95;;;3.95;;
55053;SDS011;40954;45.668;18.980;2022-09-09T00:16:58;4.50;;;3.50;;
55053;SDS011;40954;45.668;18.980;2022-09-09T00:19:35;6.22;;;3.63;;
55053;SDS011;40954;45.668;18.980;2022-09-09T00:22:19;5.72;;;3.75;;
55053;SDS011;40954;45.668;18.980;2022-09-09T00:24:47;4.60;;;3.20;;
55053;SDS011;40954;45.668;18.980;2022-09-09T00:29:54;4.97;;;3.20;;
55053;SDS011;40954;45.668;18.980;2022-09-09T00:32:21;8.85;;;3.88;;
55053;SDS011;40954;45.668;18.980;2022-09-09T00:34:49;7.43;;;3.38;;
55053;SDS011;40954;45.668;18.980;2022-09-09T00:37:17;5.22;;;3.80;;
55053;SDS011;40954;45.668;18.980;2022-09-09T00:39:44;5.20;;;3.85;;
55053;SDS011;40954;45.668;18.980;2022-09-09T00:44:56;6.47;;;3.58;;
55053;SDS011;40954;45.668;18.980;2022-09-09T00:47:43;6.38;;;3.80;;
55053;SDS011;40954;45.668;18.980;2022-09-09T00:57:35;3.70;;;3.38;;
55053;SDS011;40954;45.668;18.980;2022-09-09T01:03:31;7.25;;;3.67;;
55053;SDS011;40954;45.668;18.980;2022-09-09T01:08:02;4.18;;;3.35;;
55053;SDS011;40954;45.668;18.980;2022-09-09T01:10:31;5.90;;;4.18;;
55053;SDS011;40954;45.668;18.980;2022-09-09T01:13:02;4.28;;;3.92;;
55053;SDS011;40954;45.668;18.980;2022-09-09T01:15:30;5.03;;;3.50;;
55053;SDS011;40954;45.668;18.980;2022-09-09T01:20:31;5.20;;;3.30;;
55053;SDS011;40954;45.668;18.980;2022-09-09T01:26:00;9.88;;;3.85;;
55053;SDS011;40954;45.668;18.980;2022-09-09T01:28:30;11.98;;;4.00;;
55053;SDS011;40954;45.668;18.980;2022-09-09T01:30:57;4.78;;;4.00;;
55053;SDS011;40954;45.668;18.980;2022-09-09T01:33:24;6.18;;;4.43;;
55053;SDS011;40954;45.668;18.980;2022-09-09T01:36:04;7.90;;;4.70;;
55053;SDS011;40954;45.668;18.980;2022-09-09T01:38:32;6.55;;;4.63;;
55053;SDS011;40954;45.668;18.980;2022-09-09T01:40:59;7.25;;;4.47;;
55053;SDS011;40954;45.668;18.980;2022-09-09T01:43:25;5.68;;;4.30;;
55053;SDS011;40954;45.668;18.980;2022-09-09T01:45:52;7.43;;;4.47;;
55053;SDS011;40954;45.668;18.980;2022-09-09T01:48:19;8.15;;;5.75;;
55053;SDS011;40954;45.668;18.980;2022-09-09T01:50:46;5.28;;;4.10;;
55053;SDS011;40954;45.668;18.980;2022-09-09T01:53:13;7.32;;;4.45;;
55053;SDS011;40954;45.668;18.980;2022-09-09T01:55:44;9.70;;;4.53;;
55053;SDS011;40954;45.668;18.980;2022-09-09T01:58:34;8.38;;;4.15;;
55053;SDS011;40954;45.668;18.980;2022-09-09T02:03:27;7.38;;;5.15;;
55053;SDS011;40954;45.668;18.980;2022-09-09T02:06:03;6.43;;;5.03;;
55053;SDS011;40954;45.668;18.980;2022-09-09T02:10:59;5.50;;;4.45;;
55053;SDS011;40954;45.668;18.980;2022-09-09T02:13:27;9.30;;;5.80;;
55053;SDS011;40954;45.668;18.980;2022-09-09T02:15:59;9.30;;;4.88;;
55053;SDS011;40954;45.668;18.980;2022-09-09T02:20:53;6.25;;;4.55;;
55053;SDS011;40954;45.668;18.980;2022-09-09T02:23:19;7.20;;;4.50;;
55053;SDS011;40954;45.668;18.980;2022-09-09T02:25:46;6.95;;;4.90;;
55053;SDS011;40954;45.668;18.980;2022-09-09T02:28:14;6.93;;;5.32;;
55053;SDS011;40954;45.668;18.980;2022-09-09T02:30:40;5.35;;;4.50;;
55053;SDS011;40954;45.668;18.980;2022-09-09T02:33:08;7.65;;;4.53;;
55053;SDS011;40954;45.668;18.980;2022-09-09T02:35:35;8.20;;;5.10;;
55053;SDS011;40954;45.668;18.980;2022-09-09T02:38:04;8.32;;;5.13;;
55053;SDS011;40954;45.668;18.980;2022-09-09T02:40:31;5.90;;;5.10;;
55053;SDS011;40954;45.668;18.980;2022-09-09T02:42:57;17.88;;;5.68;;
55053;SDS011;40954;45.668;18.980;2022-09-09T02:45:25;5.82;;;4.65;;
55053;SDS011;40954;45.668;18.980;2022-09-09T02:50:36;5.43;;;4.90;;
55053;SDS011;40954;45.668;18.980;2022-09-09T02:55:39;6.65;;;4.43;;
55053;SDS011;40954;45.668;18.980;2022-09-09T02:58:08;8.20;;;4.05;;
55053;SDS011;40954;45.668;18.980;2022-09-09T03:00:36;8.40;;;4.43;;
55053;SDS011;40954;45.668;18.980;2022-09-09T03:03:03;6.25;;;4.40;;
55053;SDS011;40954;45.668;18.980;2022-09-09T03:05:29;5.00;;;4.30;;
55053;SDS011;40954;45.668;18.980;2022-09-09T03:07:55;5.57;;;4.10;;
55053;SDS011;40954;45.668;18.980;2022-09-09T03:10:21;6.00;;;4.55;;
55053;SDS011;40954;45.668;18.980;2022-09-09T03:12:48;5.03;;;4.53;;
55053;SDS011;40954;45.668;18.980;2022-09-09T03:15:14;4.03;;;3.63;;
55053;SDS011;40954;45.668;18.980;2022-09-09T03:17:40;5.20;;;4.70;;
55053;SDS011;40954;45.668;18.980;2022-09-09T03:20:06;5.32;;;4.25;;
55053;SDS011;40954;45.668;18.980;2022-09-09T03:22:33;7.88;;;4.45;;
55053;SDS011;40954;45.668;18.980;2022-09-09T03:24:59;6.50;;;4.57;;
55053;SDS011;40954;45.668;18.980;2022-09-09T03:27:25;5.75;;;3.40;;
55053;SDS011;40954;45.668;18.980;2022-09-09T03:29:51;5.45;;;4.53;;
55053;SDS011;40954;45.668;18.980;2022-09-09T03:32:18;5.53;;;3.95;;
55053;SDS011;40954;45.668;18.980;2022-09-09T03:34:47;4.85;;;4.35;;
55053;SDS011;40954;45.668;18.980;2022-09-09T03:37:14;9.32;;;4.22;;
55053;SDS011;40954;45.668;18.980;2022-09-09T03:39:40;8.35;;;4.82;;
55053;SDS011;40954;45.668;18.980;2022-09-09T03:42:06;5.82;;;4.50;;
55053;SDS011;40954;45.668;18.980;2022-09-09T03:44:32;4.40;;;3.95;;
55053;SDS011;40954;45.668;18.980;2022-09-09T03:46:58;5.20;;;3.33;;
55053;SDS011;40954;45.668;18.980;2022-09-09T03:49:28;5.43;;;4.10;;
55053;SDS011;40954;45.668;18.980;2022-09-09T03:51:55;4.18;;;3.75;;
55053;SDS011;40954;45.668;18.980;2022-09-09T03:54:22;4.15;;;3.75;;
55053;SDS011;40954;45.668;18.980;2022-09-09T03:56:49;6.97;;;4.28;;
55053;SDS011;40954;45.668;18.980;2022-09-09T03:59:15;4.07;;;3.67;;
55053;SDS011;40954;45.668;18.980;2022-09-09T04:01:41;6.70;;;4.22;;
55053;SDS011;40954;45.668;18.980;2022-09-09T04:04:07;6.15;;;4.45;;
55053;SDS011;40954;45.668;18.980;2022-09-09T04:06:34;5.40;;;4.38;;
55053;SDS011;40954;45.668;18.980;2022-09-09T04:09:00;5.57;;;4.30;;
55053;SDS011;40954;45.668;18.980;2022-09-09T04:11:28;7.28;;;4.60;;
55053;SDS011;40954;45.668;18.980;2022-09-09T04:13:54;4.32;;;3.80;;
55053;SDS011;40954;45.668;18.980;2022-09-09T04:16:20;4.75;;;3.80;;
55053;SDS011;40954;45.668;18.980;2022-09-09T04:18:46;4.80;;;3.95;;
55053;SDS011;40954;45.668;18.980;2022-09-09T04:21:13;5.57;;;4.30;;
55053;SDS011;40954;45.668;18.980;2022-09-09T04:23:40;4.45;;;3.65;;
55053;SDS011;40954;45.668;18.980;2022-09-09T04:26:06;5.28;;;4.60;;
55053;SDS011;40954;45.668;18.980;2022-09-09T04:28:34;8.38;;;4.72;;
55053;SDS011;40954;45.668;18.980;2022-09-09T04:31:04;5.05;;;4.63;;
55053;SDS011;40954;45.668;18.980;2022-09-09T04:33:30;6.32;;;4.93;;
55053;SDS011;40954;45.668;18.980;2022-09-09T04:35:56;6.40;;;3.88;;
55053;SDS011;40954;45.668;18.980;2022-09-09T04:38:22;5.07;;;4.57;;
55053;SDS011;40954;45.668;18.980;2022-09-09T04:40:49;4.30;;;3.90;;
55053;SDS011;40954;45.668;18.980;2022-09-09T04:43:16;5.53;;;4.70;;
55053;SDS011;40954;45.668;18.980;2022-09-09T04:45:44;7.95;;;5.85;;
55053;SDS011;40954;45.668;18.980;2022-09-09T04:48:12;10.52;;;6.38;;
55053;SDS011;40954;45.668;18.980;2022-09-09T04:50:38;8.90;;;5.20;;
55053;SDS011;40954;45.668;18.980;2022-09-09T04:53:05;10.00;;;7.50;;
55053;SDS011;40954;45.668;18.980;2022-09-09T04:55:32;12.13;;;6.07;;
55053;SDS011;40954;45.668;18.980;2022-09-09T04:58:03;7.88;;;4.95;;
55053;SDS011;40954;45.668;18.980;2022-09-09T05:00:30;10.85;;;5.65;;
55053;SDS011;40954;45.668;18.980;2022-09-09T05:02:56;5.47;;;4.63;;
55053;SDS011;40954;45.668;18.980;2022-09-09T05:05:22;4.70;;;4.30;;
55053;SDS011;40954;45.668;18.980;2022-09-09T05:07:48;7.68;;;4.57;;
55053;SDS011;40954;45.668;18.980;2022-09-09T05:10:14;7.40;;;4.43;;
55053;SDS011;40954;45.668;18.980;2022-09-09T05:12:41;5.53;;;5.03;;
55053;SDS011;40954;45.668;18.980;2022-09-09T05:15:07;6.30;;;4.93;;
55053;SDS011;40954;45.668;18.980;2022-09-09T05:17:34;8.77;;;5.00;;
55053;SDS011;40954;45.668;18.980;2022-09-09T05:20:01;9.13;;;4.53;;
55053;SDS011;40954;45.668;18.980;2022-09-09T05:22:28;7.57;;;5.32;;
55053;SDS011;40954;45.668;18.980;2022-09-09T05:24:55;6.70;;;5.90;;
55053;SDS011;40954;45.668;18.980;2022-09-09T05:27:21;7.28;;;5.93;;
55053;SDS011;40954;45.668;18.980;2022-09-09T05:29:47;11.35;;;6.47;;
55053;SDS011;40954;45.668;18.980;2022-09-09T05:32:13;7.45;;;6.03;;
55053;SDS011;40954;45.668;18.980;2022-09-09T05:34:41;8.23;;;6.25;;
55053;SDS011;40954;45.668;18.980;2022-09-09T05:37:07;8.07;;;6.22;;
55053;SDS011;40954;45.668;18.980;2022-09-09T05:39:33;12.05;;;5.70;;
55053;SDS011;40954;45.668;18.980;2022-09-09T05:42:01;8.70;;;6.00;;
55053;SDS011;40954;45.668;18.980;2022-09-09T05:44:29;7.00;;;5.07;;
55053;SDS011;40954;45.668;18.980;2022-09-09T05:46:55;8.98;;;4.93;;
55053;SDS011;40954;45.668;18.980;2022-09-09T05:49:23;5.32;;;4.40;;
55053;SDS011;40954;45.668;18.980;2022-09-09T05:51:49;7.07;;;4.50;;
55053;SDS011;40954;45.668;18.980;2022-09-09T05:54:15;6.57;;;4.28;;
55053;SDS011;40954;45.668;18.980;2022-09-09T05:56:42;7.45;;;4.88;;
55053;SDS011;40954;45.668;18.980;2022-09-09T05:59:08;12.50;;;5.35;;
55053;SDS011;40954;45.668;18.980;2022-09-09T06:01:35;6.25;;;5.10;;
55053;SDS011;40954;45.668;18.980;2022-09-09T06:04:05;6.30;;;5.07;;
55053;SDS011;40954;45.668;18.980;2022-09-09T06:06:36;7.50;;;5.53;;
55053;SDS011;40954;45.668;18.980;2022-09-09T06:09:04;7.03;;;5.28;;
55053;SDS011;40954;45.668;18.980;2022-09-09T06:11:32;6.55;;;5.80;;
55053;SDS011;40954;45.668;18.980;2022-09-09T06:14:00;6.30;;;5.50;;
55053;SDS011;40954;45.668;18.980;2022-09-09T06:16:27;7.03;;;6.25;;
55053;SDS011;40954;45.668;18.980;2022-09-09T06:18:54;7.95;;;5.57;;
55053;SDS011;40954;45.668;18.980;2022-09-09T06:23:47;13.75;;;6.65;;
55053;SDS011;40954;45.668;18.980;2022-09-09T06:26:15;10.18;;;6.45;;
55053;SDS011;40954;45.668;18.980;2022-09-09T06:28:47;9.27;;;5.97;;
55053;SDS011;40954;45.668;18.980;2022-09-09T06:31:15;9.27;;;7.15;;
55053;SDS011;40954;45.668;18.980;2022-09-09T06:33:48;8.65;;;7.28;;
55053;SDS011;40954;45.668;18.980;2022-09-09T06:38:43;7.97;;;6.65;;
55053;SDS011;40954;45.668;18.980;2022-09-09T06:41:10;11.35;;;7.32;;
55053;SDS011;40954;45.668;18.980;2022-09-09T06:43:37;11.43;;;8.43;;
55053;SDS011;40954;45.668;18.980;2022-09-09T06:48:29;10.95;;;8.10;;
55053;SDS011;40954;45.668;18.980;2022-09-09T06:51:15;7.72;;;6.93;;
55053;SDS011;40954;45.668;18.980;2022-09-09T06:53:42;7.18;;;6.47;;
55053;SDS011;40954;45.668;18.980;2022-09-09T06:58:36;7.00;;;6.20;;
55053;SDS011;40954;45.668;18.980;2022-09-09T07:01:05;5.75;;;5.05;;
55053;SDS011;40954;45.668;18.980;2022-09-09T07:03:32;6.60;;;5.00;;
55053;SDS011;40954;45.668;18.980;2022-09-09T07:05:58;5.93;;;5.43;;
55053;SDS011;40954;45.668;18.980;2022-09-09T07:08:25;5.57;;;4.75;;
55053;SDS011;40954;45.668;18.980;2022-09-09T07:10:52;6.22;;;5.32;;
55053;SDS011;40954;45.668;18.980;2022-09-09T07:13:27;6.53;;;5.00;;
55053;SDS011;40954;45.668;18.980;2022-09-09T07:15:53;5.97;;;4.68;;
55053;SDS011;40954;45.668;18.980;2022-09-09T07:18:20;6.18;;;3.58;;
55053;SDS011;40954;45.668;18.980;2022-09-09T07:20:55;5.97;;;4.10;;
55053;SDS011;40954;45.668;18.980;2022-09-09T07:23:22;6.28;;;3.90;;
55053;SDS011;40954;45.668;18.980;2022-09-09T07:25:48;5.00;;;3.70;;
55053;SDS011;40954;45.668;18.980;2022-09-09T07:28:15;6.20;;;3.65;;
55053;SDS011;40954;45.668;18.980;2022-09-09T07:30:41;5.18;;;3.45;;
55053;SDS011;40954;45.668;18.980;2022-09-09T07:33:07;30.85;;;3.45;;
55053;SDS011;40954;45.668;18.980;2022-09-09T07:35:34;9.35;;;5.05;;
55053;SDS011;40954;45.668;18.980;2022-09-09T07:38:02;11.05;;;5.18;;
55053;SDS011;40954;45.668;18.980;2022-09-09T07:40:31;4.30;;;2.63;;
55053;SDS011;40954;45.668;18.980;2022-09-09T07:42:57;3.20;;;2.83;;
55053;SDS011;40954;45.668;18.980;2022-09-09T07:45:24;4.47;;;2.90;;
55053;SDS011;40954;45.668;18.980;2022-09-09T07:47:53;3.97;;;2.05;;
55053;SDS011;40954;45.668;18.980;2022-09-09T07:50:20;6.75;;;2.45;;
55053;SDS011;40954;45.668;18.980;2022-09-09T07:52:46;3.25;;;2.22;;
55053;SDS011;40954;45.668;18.980;2022-09-09T07:55:12;2.25;;;2.05;;
55053;SDS011;40954;45.668;18.980;2022-09-09T07:57:38;2.10;;;2.00;;
55053;SDS011;40954;45.668;18.980;2022-09-09T08:00:05;1.70;;;1.60;;
55053;SDS011;40954;45.668;18.980;2022-09-09T08:02:31;3.75;;;1.58;;
55053;SDS011;40954;45.668;18.980;2022-09-09T08:04:57;1.40;;;1.30;;
55053;SDS011;40954;45.668;18.980;2022-09-09T08:07:23;1.48;;;1.27;;
55053;SDS011;40954;45.668;18.980;2022-09-09T08:09:49;2.10;;;1.40;;
55053;SDS011;40954;45.668;18.980;2022-09-09T08:12:16;4.60;;;2.58;;
55053;SDS011;40954;45.668;18.980;2022-09-09T08:14:42;1.85;;;1.45;;
55053;SDS011;40954;45.668;18.980;2022-09-09T08:17:08;3.15;;;1.70;;
55053;SDS011;40954;45.668;18.980;2022-09-09T08:19:34;2.53;;;2.13;;
55053;SDS011;40954;45.668;18.980;2022-09-09T08:22:01;3.10;;;1.80;;
55053;SDS011;40954;45.668;18.980;2022-09-09T08:24:27;2.40;;;1.80;;
55053;SDS011;40954;45.668;18.980;2022-09-09T08:26:54;2.03;;;0.93;;
55053;SDS011;40954;45.668;18.980;2022-09-09T08:29:21;1.33;;;1.20;;
55053;SDS011;40954;45.668;18.980;2022-09-09T08:31:52;4.25;;;2.22;;
55053;SDS011;40954;45.668;18.980;2022-09-09T08:36:45;1.67;;;1.58;;
55053;SDS011;40954;45.668;18.980;2022-09-09T08:39:13;3.38;;;1.80;;
55053;SDS011;40954;45.668;18.980;2022-09-09T08:52:11;1.70;;;1.60;;
55053;SDS011;40954;45.668;18.980;2022-09-09T08:54:40;1.63;;;1.52;;
55053;SDS011;40954;45.668;18.980;2022-09-09T08:57:09;2.88;;;1.63;;
55053;SDS011;40954;45.668;18.980;2022-09-09T08:59:37;2.40;;;2.20;;
55053;SDS011;40954;45.668;18.980;2022-09-09T09:09:40;1.50;;;1.35;;
55053;SDS011;40954;45.668;18.980;2022-09-09T09:12:20;1.10;;;1.02;;
55053;SDS011;40954;45.668;18.980;2022-09-09T09:14:47;0.80;;;0.80;;
55053;SDS011;40954;45.668;18.980;2022-09-09T09:17:18;1.33;;;1.05;;
55053;SDS011;40954;45.668;18.980;2022-09-09T09:19:44;1.95;;;1.10;;
55053;SDS011;40954;45.668;18.980;2022-09-09T09:22:41;1.92;;;1.35;;
55053;SDS011;40954;45.668;18.980;2022-09-09T09:30:16;0.90;;;0.90;;
55053;SDS011;40954;45.668;18.980;2022-09-09T09:32:54;3.50;;;1.33;;
55053;SDS011;40954;45.668;18.980;2022-09-09T09:35:21;1.55;;;1.35;;
55053;SDS011;40954;45.668;18.980;2022-09-09T09:37:47;6.30;;;2.20;;
55053;SDS011;40954;45.668;18.980;2022-09-09T09:40:17;10.68;;;2.67;;
55053;SDS011;40954;45.668;18.980;2022-09-09T09:42:54;2.92;;;1.27;;
55053;SDS011;40954;45.668;18.980;2022-09-09T09:47:57;3.13;;;1.80;;
55053;SDS011;40954;45.668;18.980;2022-09-09T09:50:23;9.98;;;2.17;;
55053;SDS011;40954;45.668;18.980;2022-09-09T09:55:48;2.35;;;1.70;;
55053;SDS011;40954;45.668;18.980;2022-09-09T09:58:16;1.92;;;1.15;;
55053;SDS011;40954;45.668;18.980;2022-09-09T10:00:50;1.40;;;1.30;;
55053;SDS011;40954;45.668;18.980;2022-09-09T10:03:21;3.50;;;1.63;;
55053;SDS011;40954;45.668;18.980;2022-09-09T10:05:48;3.90;;;1.42;;
55053;SDS011;40954;45.668;18.980;2022-09-09T10:08:15;2.13;;;1.98;;
55053;SDS011;40954;45.668;18.980;2022-09-09T10:21:14;1.95;;;1.30;;
55053;SDS011;40954;45.668;18.980;2022-09-09T10:37:21;1.25;;;1.20;;
55053;SDS011;40954;45.668;18.980;2022-09-09T10:39:54;1.85;;;1.40;;
55053;SDS011;40954;45.668;18.980;2022-09-09T10:42:26;1.80;;;1.30;;
55053;SDS011;40954;45.668;18.980;2022-09-09T11:00:05;1.38;;;1.27;;
55053;SDS011;40954;45.668;18.980;2022-09-09T11:02:33;2.03;;;1.23;;
55053;SDS011;40954;45.668;18.980;2022-09-09T11:07:37;1.30;;;1.00;;
55053;SDS011;40954;45.668;18.980;2022-09-09T11:10:11;1.60;;;1.10;;
55053;SDS011;40954;45.668;18.980;2022-09-09T11:12:41;2.10;;;1.50;;
55053;SDS011;40954;45.668;18.980;2022-09-09T11:15:14;0.93;;;0.90;;
55053;SDS011;40954;45.668;18.980;2022-09-09T11:17:45;1.42;;;1.05;;
55053;SDS011;40954;45.668;18.980;2022-09-09T11:20:12;2.17;;;1.38;;
55053;SDS011;40954;45.668;18.980;2022-09-09T11:22:49;1.33;;;1.23;;
55053;SDS011;40954;45.668;18.980;2022-09-09T11:25:25;1.48;;;1.20;;
55053;SDS011;40954;45.668;18.980;2022-09-09T11:40:39;1.98;;;1.33;;
55053;SDS011;40954;45.668;18.980;2022-09-09T11:43:16;4.82;;;2.00;;
55053;SDS011;40954;45.668;18.980;2022-09-09T11:45:49;7.28;;;2.55;;
55053;SDS011;40954;45.668;18.980;2022-09-09T11:48:23;5.93;;;2.40;;
55053;SDS011;40954;45.668;18.980;2022-09-09T11:51:08;5.40;;;1.48;;
55053;SDS011;40954;45.668;18.980;2022-09-09T11:53:35;2.97;;;1.70;;
55053;SDS011;40954;45.668;18.980;2022-09-09T11:56:11;6.63;;;1.10;;
55053;SDS011;40954;45.668;18.980;2022-09-09T11:58:42;1.38;;;1.20;;
55053;SDS011;40954;45.668;18.980;2022-09-09T12:01:25;3.08;;;1.52;;
55053;SDS011;40954;45.668;18.980;2022-09-09T12:03:55;7.65;;;2.72;;
55053;SDS011;40954;45.668;18.980;2022-09-09T12:06:33;3.53;;;1.80;;
55053;SDS011;40954;45.668;18.980;2022-09-09T12:09:13;5.53;;;2.22;;
55053;SDS011;40954;45.668;18.980;2022-09-09T12:11:42;1.77;;;1.40;;
55053;SDS011;40954;45.668;18.980;2022-09-09T12:14:18;3.90;;;1.17;;
55053;SDS011;40954;45.668;18.980;2022-09-09T12:16:44;1.45;;;1.35;;
55053;SDS011;40954;45.668;18.980;2022-09-09T12:19:21;3.42;;;2.13;;
55053;SDS011;40954;45.668;18.980;2022-09-09T12:22:02;5.57;;;1.60;;
55053;SDS011;40954;45.668;18.980;2022-09-09T12:25:16;6.30;;;2.17;;
55053;SDS011;40954;45.668;18.980;2022-09-09T12:27:36;2.70;;;1.48;;
55053;SDS011;40954;45.668;18.980;2022-09-09T12:30:10;8.68;;;2.35;;
55053;SDS011;40954;45.668;18.980;2022-09-09T12:32:37;6.32;;;1.98;;
55053;SDS011;40954;45.668;18.980;2022-09-09T12:35:04;3.60;;;1.70;;
55053;SDS011;40954;45.668;18.980;2022-09-09T12:37:36;1.60;;;1.50;;
55053;SDS011;40954;45.668;18.980;2022-09-09T12:40:04;7.22;;;1.80;;
55053;SDS011;40954;45.668;18.980;2022-09-09T12:42:30;3.47;;;1.63;;
55053;SDS011;40954;45.668;18.980;2022-09-09T12:45:01;3.75;;;1.83;;
55053;SDS011;40954;45.668;18.980;2022-09-09T12:49:57;2.10;;;1.80;;
55053;SDS011;40954;45.668;18.980;2022-09-09T12:52:32;1.45;;;1.35;;
55053;SDS011;40954;45.668;18.980;2022-09-09T12:55:02;6.03;;;1.70;;
55053;SDS011;40954;45.668;18.980;2022-09-09T12:57:32;1.40;;;1.30;;
55053;SDS011;40954;45.668;18.980;2022-09-09T13:00:15;5.55;;;1.73;;
55053;SDS011;40954;45.668;18.980;2022-09-09T13:02:45;2.85;;;1.50;;
55053;SDS011;40954;45.668;18.980;2022-09-09T13:05:16;2.05;;;1.60;;
55053;SDS011;40954;45.668;18.980;2022-09-09T13:07:43;2.30;;;1.60;;
55053;SDS011;40954;45.668;18.980;2022-09-09T13:10:12;4.50;;;1.58;;
55053;SDS011;40954;45.668;18.980;2022-09-09T13:12:39;1.50;;;1.40;;
55053;SDS011;40954;45.668;18.980;2022-09-09T13:15:10;3.30;;;1.50;;
55053;SDS011;40954;45.668;18.980;2022-09-09T13:17:38;2.03;;;1.45;;
55053;SDS011;40954;45.668;18.980;2022-09-09T13:20:05;1.80;;;1.65;;
55053;SDS011;40954;45.668;18.980;2022-09-09T13:22:35;3.10;;;1.92;;
55053;SDS011;40954;45.668;18.980;2022-09-09T13:25:06;2.90;;;1.38;;
55053;SDS011;40954;45.668;18.980;2022-09-09T13:27:33;1.90;;;1.40;;
55053;SDS011;40954;45.668;18.980;2022-09-09T13:30:00;4.97;;;2.08;;
55053;SDS011;40954;45.668;18.980;2022-09-09T13:32:27;3.00;;;1.67;;
55053;SDS011;40954;45.668;18.980;2022-09-09T13:34:54;1.88;;;1.42;;
55053;SDS011;40954;45.668;18.980;2022-09-09T13:37:26;1.50;;;1.40;;
55053;SDS011;40954;45.668;18.980;2022-09-09T13:39:55;2.45;;;1.67;;
55053;SDS011;40954;45.668;18.980;2022-09-09T13:42:27;2.53;;;1.63;;
55053;SDS011;40954;45.668;18.980;2022-09-09T13:44:54;3.47;;;1.63;;
55053;SDS011;40954;45.668;18.980;2022-09-09T13:47:22;3.22;;;1.73;;
55053;SDS011;40954;45.668;18.980;2022-09-09T13:49:52;3.22;;;1.70;;
55053;SDS011;40954;45.668;18.980;2022-09-09T13:52:19;2.53;;;1.70;;
55053;SDS011;40954;45.668;18.980;2022-09-09T13:54:47;3.60;;;2.00;;
55053;SDS011;40954;45.668;18.980;2022-09-09T13:57:15;3.90;;;1.80;;
55053;SDS011;40954;45.668;18.980;2022-09-09T13:59:42;6.80;;;2.17;;
55053;SDS011;40954;45.668;18.980;2022-09-09T14:02:08;1.75;;;1.60;;
55053;SDS011;40954;45.668;18.980;2022-09-09T14:04:34;2.42;;;1.50;;
55053;SDS011;40954;45.668;18.980;2022-09-09T14:07:00;1.73;;;1.63;;
55053;SDS011;40954;45.668;18.980;2022-09-09T14:09:26;2.80;;;1.67;;
55053;SDS011;40954;45.668;18.980;2022-09-09T14:11:53;2.30;;;1.48;;
55053;SDS011;40954;45.668;18.980;2022-09-09T14:14:20;2.90;;;1.75;;
55053;SDS011;40954;45.668;18.980;2022-09-09T14:16:46;2.75;;;1.92;;
55053;SDS011;40954;45.668;18.980;2022-09-09T14:19:12;5.35;;;2.00;;
55053;SDS011;40954;45.668;18.980;2022-09-09T14:21:38;3.33;;;1.95;;
55053;SDS011;40954;45.668;18.980;2022-09-09T14:24:04;3.47;;;1.95;;
55053;SDS011;40954;45.668;18.980;2022-09-09T14:26:31;2.92;;;2.00;;
55053;SDS011;40954;45.668;18.980;2022-09-09T14:28:57;4.15;;;2.00;;
55053;SDS011;40954;45.668;18.980;2022-09-09T14:31:25;3.60;;;1.92;;
55053;SDS011;40954;45.668;18.980;2022-09-09T14:33:51;4.05;;;2.25;;
55053;SDS011;40954;45.668;18.980;2022-09-09T14:36:17;3.80;;;2.10;;
55053;SDS011;40954;45.668;18.980;2022-09-09T14:38:44;2.90;;;2.00;;
55053;SDS011;40954;45.668;18.980;2022-09-09T14:41:10;2.58;;;1.73;;
55053;SDS011;40954;45.668;18.980;2022-09-09T14:43:37;8.85;;;2.30;;
55053;SDS011;40954;45.668;18.980;2022-09-09T14:46:10;3.00;;;1.90;;
55053;SDS011;40954;45.668;18.980;2022-09-09T14:48:37;6.82;;;2.25;;
55053;SDS011;40954;45.668;18.980;2022-09-09T14:51:09;6.70;;;2.35;;
55053;SDS011;40954;45.668;18.980;2022-09-09T14:53:35;3.17;;;1.80;;
55053;SDS011;40954;45.668;18.980;2022-09-09T14:56:04;2.40;;;2.17;;
55053;SDS011;40954;45.668;18.980;2022-09-09T14:58:31;4.32;;;2.22;;
55053;SDS011;40954;45.668;18.980;2022-09-09T15:01:10;2.97;;;1.65;;
55053;SDS011;40954;45.668;18.980;2022-09-09T15:03:36;4.15;;;2.22;;
55053;SDS011;40954;45.668;18.980;2022-09-09T15:06:10;4.43;;;2.03;;
55053;SDS011;40954;45.668;18.980;2022-09-09T15:08:37;4.63;;;2.20;;
55053;SDS011;40954;45.668;18.980;2022-09-09T15:11:03;1.52;;;1.40;;
55053;SDS011;40954;45.668;18.980;2022-09-09T15:13:30;2.67;;;1.80;;
55053;SDS011;40954;45.668;18.980;2022-09-09T15:16:02;2.72;;;1.85;;
55053;SDS011;40954;45.668;18.980;2022-09-09T15:18:28;6.47;;;2.47;;
55053;SDS011;40954;45.668;18.980;2022-09-09T15:20:54;2.45;;;2.03;;
55053;SDS011;40954;45.668;18.980;2022-09-09T15:23:21;2.25;;;2.05;;
55053;SDS011;40954;45.668;18.980;2022-09-09T15:25:51;3.63;;;1.98;;
55053;SDS011;40954;45.668;18.980;2022-09-09T15:28:17;3.40;;;2.22;;
55053;SDS011;40954;45.668;18.980;2022-09-09T15:30:43;3.05;;;1.83;;
55053;SDS011;40954;45.668;18.980;2022-09-09T15:33:10;3.65;;;2.35;;
55053;SDS011;40954;45.668;18.980;2022-09-09T15:35:36;4.18;;;2.30;;
55053;SDS011;40954;45.668;18.980;2022-09-09T15:38:02;3.15;;;2.15;;
55053;SDS011;40954;45.668;18.980;2022-09-09T15:40:30;5.22;;;2.42;;
55053;SDS011;40954;45.668;18.980;2022-09-09T15:42:57;5.40;;;1.88;;
55053;SDS011;40954;45.668;18.980;2022-09-09T15:45:23;7.53;;;2.30;;
55053;SDS011;40954;45.668;18.980;2022-09-09T15:47:49;3.05;;;2.50;;
55053;SDS011;40954;45.668;18.980;2022-09-09T15:50:16;3.58;;;2.22;;
55053;SDS011;40954;45.668;18.980;2022-09-09T15:52:42;2.10;;;1.60;;
55053;SDS011;40954;45.668;18.980;2022-09-09T15:55:08;2.55;;;1.90;;
55053;SDS011;40954;45.668;18.980;2022-09-09T15:57:34;2.88;;;2.38;;
55053;SDS011;40954;45.668;18.980;2022-09-09T16:00:01;2.50;;;2.30;;
55053;SDS011;40954;45.668;18.980;2022-09-09T16:02:28;5.05;;;2.63;;
55053;SDS011;40954;45.668;18.980;2022-09-09T16:04:55;2.28;;;2.08;;
55053;SDS011;40954;45.668;18.980;2022-09-09T16:07:22;2.08;;;1.85;;
55053;SDS011;40954;45.668;18.980;2022-09-09T16:09:48;4.03;;;2.20;;
55053;SDS011;40954;45.668;18.980;2022-09-09T16:12:17;4.28;;;2.20;;
55053;SDS011;40954;45.668;18.980;2022-09-09T16:14:44;3.17;;;2.45;;
55053;SDS011;40954;45.668;18.980;2022-09-09T16:17:10;2.40;;;2.00;;
55053;SDS011;40954;45.668;18.980;2022-09-09T16:19:36;3.15;;;2.50;;
55053;SDS011;40954;45.668;18.980;2022-09-09T16:22:03;4.38;;;2.10;;
55053;SDS011;40954;45.668;18.980;2022-09-09T16:24:29;3.92;;;2.22;;
55053;SDS011;40954;45.668;18.980;2022-09-09T16:26:55;2.95;;;2.20;;
55053;SDS011;40954;45.668;18.980;2022-09-09T16:29:21;2.60;;;1.90;;
55053;SDS011;40954;45.668;18.980;2022-09-09T16:31:49;3.42;;;2.08;;
55053;SDS011;40954;45.668;18.980;2022-09-09T16:34:16;3.10;;;1.67;;
55053;SDS011;40954;45.668;18.980;2022-09-09T16:36:43;3.60;;;2.72;;
55053;SDS011;40954;45.668;18.980;2022-09-09T16:39:13;2.55;;;2.35;;
55053;SDS011;40954;45.668;18.980;2022-09-09T16:41:40;5.00;;;2.20;;
55053;SDS011;40954;45.668;18.980;2022-09-09T16:44:07;4.03;;;2.50;;
55053;SDS011;40954;45.668;18.980;2022-09-09T16:46:35;3.17;;;2.20;;
55053;SDS011;40954;45.668;18.980;2022-09-09T16:49:02;3.03;;;2.17;;
55053;SDS011;40954;45.668;18.980;2022-09-09T16:51:30;7.18;;;2.47;;
55053;SDS011;40954;45.668;18.980;2022-09-09T16:53:58;4.93;;;2.67;;
55053;SDS011;40954;45.668;18.980;2022-09-09T16:56:25;3.97;;;2.85;;
55053;SDS011;40954;45.668;18.980;2022-09-09T16:58:52;2.45;;;2.25;;
55053;SDS011;40954;45.668;18.980;2022-09-09T17:01:20;4.25;;;2.15;;